Open Full Screen Window  High Contrast Mode
Wind Gusting 19 knots
12
October 25, 2014 10:57 PM EDT
Weather Information
Wind Direction
  290 °
Wind Speed
  12 kt (14 mph)
Wind Gust
  19 kt (22 mph)
Altimeter
29.80 in
Visibility
10 SM
Temperature
14° C
57° F
Dewpoint
-01° C
30° F
Humidity
36%
1hr Rain Fall
00.00 in.
24hr Rain Fall
00.00 in.
Sky Condition
Clear
VFR

METAR KPOV 260257Z AUTO 29012G19KT 10SM CLR 14/M01 A2980 RMK AO2 T01391015

*Background is not an actual portrayal of the airport.